createdAt,value
2022-10-05T00:00:57.227Z,45.58
2022-10-05T00:01:57.321Z,45.58
2022-10-05T00:02:57.246Z,45.58
2022-10-05T00:03:57.270Z,45.58
2022-10-05T00:04:57.275Z,45.58
2022-10-05T00:05:57.202Z,45.58
2022-10-05T00:06:57.178Z,45.58
2022-10-05T00:07:57.207Z,45.58
2022-10-05T00:08:57.147Z,45.58
2022-10-05T00:09:57.159Z,45.58
2022-10-05T00:10:57.139Z,45.58
2022-10-05T00:11:57.139Z,45.58
2022-10-05T00:12:57.129Z,45.58
2022-10-05T00:13:57.823Z,45.58
2022-10-05T00:14:57.098Z,45.58
2022-10-05T00:15:57.088Z,45.58
2022-10-05T00:16:57.767Z,45.58
2022-10-05T00:17:57.118Z,45.58
2022-10-05T00:18:57.079Z,45.58
2022-10-05T00:19:57.095Z,45.58
2022-10-05T00:20:57.025Z,45.48
2022-10-05T00:21:57.016Z,45.58
2022-10-05T00:22:57.026Z,45.58
2022-10-05T00:23:56.996Z,45.58
2022-10-05T00:24:56.977Z,45.58
2022-10-05T00:25:57.012Z,45.58
2022-10-05T00:26:58.213Z,45.58
2022-10-05T00:27:57.008Z,45.48
2022-10-05T00:28:56.969Z,45.48
2022-10-05T00:29:56.981Z,45.48
2022-10-05T00:30:56.918Z,45.48
2022-10-05T00:31:56.969Z,45.48
2022-10-05T00:32:59.661Z,45.58
2022-10-05T00:33:56.899Z,45.48
2022-10-05T00:34:56.919Z,45.48
2022-10-05T00:35:56.885Z,45.48
2022-10-05T00:36:56.861Z,45.48
2022-10-05T00:37:56.868Z,45.48
2022-10-05T00:38:56.839Z,45.48
2022-10-05T00:39:56.837Z,45.48
2022-10-05T00:40:56.817Z,45.48
2022-10-05T00:41:56.807Z,45.48
2022-10-05T00:42:56.808Z,45.48
2022-10-05T00:43:56.809Z,45.48
2022-10-05T00:44:56.789Z,45.48
2022-10-05T00:45:56.873Z,45.48
2022-10-05T00:46:56.771Z,45.48
2022-10-05T00:47:56.751Z,45.48
2022-10-05T00:48:56.740Z,45.48
2022-10-05T00:49:56.758Z,45.48
2022-10-05T00:50:56.737Z,45.48
2022-10-05T00:51:56.716Z,45.48
2022-10-05T00:52:56.689Z,45.48
2022-10-05T00:53:56.728Z,45.48
2022-10-05T00:54:56.676Z,45.48
2022-10-05T00:55:56.671Z,45.48
2022-10-05T00:56:56.650Z,45.48
2022-10-05T00:57:56.668Z,45.48
2022-10-05T00:58:56.648Z,45.48
2022-10-05T00:59:56.860Z,45.48
2022-10-05T01:00:56.664Z,45.48
2022-10-05T01:01:56.665Z,45.48
2022-10-05T01:02:56.600Z,45.38
2022-10-05T01:03:56.580Z,45.38
2022-10-05T01:04:56.599Z,45.38
2022-10-05T01:05:56.598Z,45.38
2022-10-05T01:06:56.563Z,45.38
2022-10-05T01:07:56.537Z,45.38
2022-10-05T01:08:56.539Z,45.38
2022-10-05T01:09:56.518Z,45.38
2022-10-05T01:10:56.561Z,45.38
2022-10-05T01:11:56.506Z,45.38
2022-10-05T01:12:56.499Z,45.38
2022-10-05T01:13:56.491Z,45.38
2022-10-05T01:14:56.502Z,45.38
2022-10-05T01:15:56.458Z,45.38
2022-10-05T01:16:56.506Z,45.38
2022-10-05T01:17:56.438Z,45.38
2022-10-05T01:18:56.428Z,45.38
2022-10-05T01:19:56.422Z,45.38
2022-10-05T01:20:56.438Z,45.38
2022-10-05T01:21:56.398Z,45.38
2022-10-05T01:22:56.400Z,45.38
2022-10-05T01:23:56.370Z,45.38
2022-10-05T01:24:56.360Z,45.38
2022-10-05T01:25:56.380Z,45.38
2022-10-05T01:26:56.359Z,45.38
2022-10-05T01:27:56.416Z,45.38
2022-10-05T01:28:56.360Z,45.38
2022-10-05T01:29:56.311Z,45.38
2022-10-05T01:30:56.310Z,45.38
2022-10-05T01:31:56.315Z,45.38
2022-10-05T01:32:56.288Z,45.38
2022-10-05T01:33:56.310Z,45.38
2022-10-05T01:34:56.268Z,45.38
2022-10-05T01:35:56.248Z,45.38
2022-10-05T01:36:56.238Z,45.38
2022-10-05T01:37:56.259Z,45.38
2022-10-05T01:38:56.219Z,45.38
2022-10-05T01:39:56.219Z,45.38
2022-10-05T01:40:56.202Z,45.38
2022-10-05T01:41:56.199Z,45.28
2022-10-05T01:42:56.221Z,45.28
2022-10-05T01:43:56.206Z,45.28
2022-10-05T01:44:56.164Z,45.28
2022-10-05T01:45:56.178Z,45.28
2022-10-05T01:46:56.161Z,45.28
2022-10-05T01:47:56.120Z,45.28
2022-10-05T01:48:56.130Z,45.28
2022-10-05T01:49:56.099Z,45.28
2022-10-05T01:50:56.101Z,45.28
2022-10-05T01:51:56.089Z,45.28
2022-10-05T01:52:56.075Z,45.28
2022-10-05T01:53:56.068Z,45.28
2022-10-05T01:54:56.049Z,45.28
2022-10-05T01:55:56.041Z,45.28
2022-10-05T01:56:56.045Z,45.28
2022-10-05T01:57:56.031Z,45.28
2022-10-05T01:58:56.041Z,45.28
2022-10-05T01:59:56.001Z,45.28
2022-10-05T02:00:56.043Z,45.28
2022-10-05T02:01:56.006Z,45.28
2022-10-05T02:02:55.981Z,45.28
2022-10-05T02:03:55.999Z,45.28
2022-10-05T02:05:02.049Z,45.28
2022-10-05T02:05:56.930Z,45.28
2022-10-05T02:06:55.948Z,45.28
2022-10-05T02:07:55.909Z,45.28
2022-10-05T02:08:55.936Z,45.28
2022-10-05T02:09:55.920Z,45.28
2022-10-05T02:10:55.887Z,45.18
2022-10-05T02:11:55.891Z,45.18
2022-10-05T02:12:55.891Z,45.18
2022-10-05T02:13:55.862Z,45.18
2022-10-05T02:14:55.891Z,45.18
2022-10-05T02:15:55.862Z,45.18
2022-10-05T02:16:55.849Z,45.18
2022-10-05T02:17:55.828Z,45.18
2022-10-05T02:18:55.816Z,45.18
2022-10-05T02:19:55.801Z,45.18
2022-10-05T02:20:55.781Z,45.18
2022-10-05T02:21:55.772Z,45.18
2022-10-05T02:22:55.782Z,45.18
2022-10-05T02:23:55.773Z,45.18
2022-10-05T02:24:55.742Z,45.18
2022-10-05T02:25:55.739Z,45.18
2022-10-05T02:26:55.732Z,45.18
2022-10-05T02:27:55.737Z,45.18
2022-10-05T02:28:55.750Z,45.18
2022-10-05T02:29:55.680Z,45.18
2022-10-05T02:30:55.670Z,45.18
2022-10-05T02:31:55.757Z,45.18
2022-10-05T02:32:55.661Z,45.18
2022-10-05T02:33:55.639Z,45.18
2022-10-05T02:34:55.661Z,45.18
2022-10-05T02:35:55.632Z,45.18
2022-10-05T02:36:55.623Z,45.18
2022-10-05T02:37:55.603Z,45.18
2022-10-05T02:38:55.593Z,45.18
2022-10-05T02:39:55.592Z,45.08
2022-10-05T02:40:55.603Z,45.18
2022-10-05T02:41:55.562Z,45.08
2022-10-05T02:42:55.552Z,45.08
2022-10-05T02:43:55.548Z,45.08
2022-10-05T02:44:55.532Z,45.08
2022-10-05T02:45:55.572Z,45.08
2022-10-05T02:46:57.386Z,45.08
2022-10-05T02:47:56.459Z,45.08
2022-10-05T02:48:55.490Z,45.08
2022-10-05T02:49:55.488Z,45.08
2022-10-05T02:50:55.461Z,45.08
2022-10-05T02:51:55.483Z,45.08
2022-10-05T02:52:55.482Z,45.08
2022-10-05T02:53:55.463Z,45.08
2022-10-05T02:54:55.422Z,45.08
2022-10-05T02:55:55.423Z,45.08
2022-10-05T02:56:55.402Z,45.08
2022-10-05T02:57:55.400Z,45.08
2022-10-05T02:58:55.404Z,45.08
2022-10-05T02:59:55.386Z,45.08
2022-10-05T03:00:55.498Z,44.98
2022-10-05T03:01:55.394Z,44.98
2022-10-05T03:02:55.345Z,44.98
2022-10-05T03:03:55.322Z,44.98
2022-10-05T03:04:55.322Z,44.98
2022-10-05T03:05:55.322Z,44.98
2022-10-05T03:07:51.263Z,44.98
2022-10-05T03:08:51.274Z,44.98
2022-10-05T03:09:51.246Z,44.98
2022-10-05T03:10:51.225Z,44.98
2022-10-05T03:11:51.234Z,44.98
2022-10-05T03:12:51.227Z,44.98
2022-10-05T03:13:51.245Z,44.98
2022-10-05T03:14:51.225Z,44.98
2022-10-05T03:15:51.281Z,44.98
2022-10-05T03:16:51.166Z,44.98
2022-10-05T03:17:51.177Z,44.98
2022-10-05T03:18:51.165Z,44.98
2022-10-05T03:19:51.179Z,44.98
2022-10-05T03:20:51.166Z,44.98
2022-10-05T03:21:51.124Z,44.98
2022-10-05T03:22:51.104Z,44.98
2022-10-05T03:23:51.103Z,44.98
2022-10-05T03:24:51.123Z,44.98
2022-10-05T03:25:51.095Z,44.98
2022-10-05T03:26:51.083Z,44.98
2022-10-05T03:27:51.056Z,44.98
2022-10-05T03:28:51.045Z,44.98
2022-10-05T03:29:51.056Z,44.98
2022-10-05T03:30:51.101Z,44.98
2022-10-05T03:31:51.018Z,44.98
2022-10-05T03:32:51.036Z,44.98
2022-10-05T03:33:50.996Z,44.98
2022-10-05T03:34:50.996Z,44.98
2022-10-05T03:35:51.033Z,44.98
2022-10-05T03:36:51.017Z,44.98
2022-10-05T03:37:51.005Z,44.98
2022-10-05T03:38:50.935Z,44.98
2022-10-05T03:39:50.935Z,44.98
2022-10-05T03:40:50.954Z,44.88
2022-10-05T03:41:50.925Z,44.88
2022-10-05T03:42:50.905Z,44.88
2022-10-05T03:43:50.896Z,44.98
2022-10-05T03:44:50.885Z,44.88
2022-10-05T03:45:50.972Z,44.88
2022-10-05T03:46:50.887Z,44.88
2022-10-05T03:47:51.825Z,44.88
2022-10-05T03:48:50.856Z,44.88
2022-10-05T03:49:50.840Z,44.88
2022-10-05T03:50:50.827Z,44.88
2022-10-05T03:51:50.817Z,44.88
2022-10-05T03:52:50.817Z,44.88
2022-10-05T03:53:50.795Z,44.88
2022-10-05T03:54:50.786Z,44.88
2022-10-05T03:55:50.776Z,44.88
2022-10-05T03:56:50.803Z,44.88
2022-10-05T03:57:50.755Z,44.88
2022-10-05T03:58:50.756Z,44.88
2022-10-05T03:59:50.745Z,44.88
2022-10-05T04:00:50.725Z,44.88
2022-10-05T04:01:50.831Z,44.88
2022-10-05T04:02:50.820Z,44.88
2022-10-05T04:03:50.705Z,44.88
2022-10-05T04:04:50.679Z,44.88
2022-10-05T04:05:50.687Z,44.88
2022-10-05T04:06:50.666Z,44.88
2022-10-05T04:07:50.645Z,44.88
2022-10-05T04:08:50.638Z,44.88
2022-10-05T04:09:50.637Z,44.88
2022-10-05T04:10:50.663Z,44.88
2022-10-05T04:11:50.638Z,44.88
2022-10-05T04:12:50.617Z,44.88
2022-10-05T04:13:50.598Z,44.88
2022-10-05T04:14:50.594Z,44.88
2022-10-05T04:15:50.615Z,44.88
2022-10-05T04:16:50.591Z,44.88
2022-10-05T04:17:50.546Z,44.78
2022-10-05T04:18:50.548Z,44.88
2022-10-05T04:19:50.525Z,44.78
2022-10-05T04:20:50.524Z,44.78
2022-10-05T04:21:50.511Z,44.78
2022-10-05T04:22:50.506Z,44.78
2022-10-05T04:23:50.488Z,44.78
2022-10-05T04:24:50.492Z,44.78
2022-10-05T04:25:50.468Z,44.78
2022-10-05T04:26:50.480Z,44.78
2022-10-05T04:27:50.448Z,44.78
2022-10-05T04:28:50.438Z,44.78
2022-10-05T04:29:50.446Z,44.78
2022-10-05T04:30:50.432Z,44.78
2022-10-05T04:31:50.484Z,44.78
2022-10-05T04:32:50.419Z,44.78
2022-10-05T04:33:50.389Z,44.78
2022-10-05T04:34:50.367Z,44.78
2022-10-05T04:35:50.377Z,44.78
2022-10-05T04:36:50.360Z,44.78
2022-10-05T04:37:50.375Z,44.78
2022-10-05T04:38:50.327Z,44.78
2022-10-05T04:39:50.318Z,44.78
2022-10-05T04:40:50.308Z,44.78
2022-10-05T04:41:50.331Z,44.78
2022-10-05T04:42:50.340Z,44.78
2022-10-05T04:43:50.298Z,44.78
2022-10-05T04:44:50.272Z,44.78
2022-10-05T04:45:50.280Z,44.78
2022-10-05T04:46:50.687Z,44.78
2022-10-05T04:47:50.279Z,44.78
2022-10-05T04:48:50.250Z,44.78
2022-10-05T04:49:50.226Z,44.68
2022-10-05T04:50:50.207Z,44.78
2022-10-05T04:51:51.329Z,44.68
2022-10-05T04:52:50.205Z,44.78
2022-10-05T04:53:50.207Z,44.78
2022-10-05T04:54:50.167Z,44.78
2022-10-05T04:55:50.168Z,44.78
2022-10-05T04:56:50.334Z,44.78
2022-10-05T04:57:50.149Z,44.68
2022-10-05T04:58:50.139Z,44.78
2022-10-05T04:59:50.130Z,44.78
2022-10-05T05:00:50.172Z,44.68
2022-10-05T05:01:50.110Z,44.68
2022-10-05T05:02:50.102Z,44.68
2022-10-05T05:03:50.189Z,44.68
2022-10-05T05:04:52.060Z,44.68
2022-10-05T05:06:15.395Z,44.68
2022-10-05T05:06:51.077Z,44.68
2022-10-05T05:07:50.037Z,44.68
2022-10-05T05:08:50.028Z,44.68
2022-10-05T05:09:50.049Z,44.68
2022-10-05T05:10:50.040Z,44.68
2022-10-05T05:11:50.007Z,44.68
2022-10-05T05:12:49.998Z,44.68
2022-10-05T05:13:49.980Z,44.68
2022-10-05T05:14:49.988Z,44.68
2022-10-05T05:15:49.968Z,44.68
2022-10-05T05:16:50.158Z,44.68
2022-10-05T05:17:49.930Z,44.68
2022-10-05T05:18:49.929Z,44.68
2022-10-05T05:19:49.935Z,44.68
2022-10-05T05:20:49.918Z,44.68
2022-10-05T05:21:49.910Z,44.68
2022-10-05T05:22:49.889Z,44.68
2022-10-05T05:23:49.871Z,44.68
2022-10-05T05:24:49.818Z,44.68
2022-10-05T05:25:49.821Z,44.68
2022-10-05T05:26:50.231Z,44.68
2022-10-05T05:27:49.850Z,44.68
2022-10-05T05:28:49.842Z,44.68
2022-10-05T05:29:49.820Z,44.68
2022-10-05T05:30:49.828Z,44.68
2022-10-05T05:31:49.813Z,44.68
2022-10-05T05:32:49.807Z,44.68
2022-10-05T05:33:49.809Z,44.68
2022-10-05T05:34:49.799Z,44.58
2022-10-05T05:35:49.729Z,44.68
2022-10-05T05:36:49.941Z,44.58
2022-10-05T05:37:49.733Z,44.58
2022-10-05T05:38:49.681Z,44.58
2022-10-05T05:39:49.740Z,44.58
2022-10-05T05:40:49.711Z,44.58
2022-10-05T05:41:50.361Z,44.58
2022-10-05T05:42:49.639Z,44.58
2022-10-05T05:43:49.652Z,44.58
2022-10-05T05:44:49.651Z,44.58
2022-10-05T05:45:49.608Z,44.58
2022-10-05T05:47:03.596Z,44.58
2022-10-05T05:47:50.724Z,44.58
2022-10-05T05:48:49.622Z,44.58
2022-10-05T05:49:49.579Z,44.58
2022-10-05T05:50:49.539Z,44.58
2022-10-05T05:51:49.539Z,44.58
2022-10-05T05:52:49.531Z,44.48
2022-10-05T05:53:49.541Z,44.48
2022-10-05T05:54:49.512Z,44.48
2022-10-05T05:55:49.521Z,44.48
2022-10-05T05:56:49.591Z,44.48
2022-10-05T05:57:50.462Z,44.48
2022-10-05T05:58:49.470Z,44.48
2022-10-05T05:59:49.471Z,44.48
2022-10-05T06:00:49.460Z,44.48
2022-10-05T06:01:49.554Z,44.48
2022-10-05T06:02:49.470Z,44.48
2022-10-05T06:03:49.420Z,44.48
2022-10-05T06:04:49.405Z,44.48
2022-10-05T06:05:49.397Z,44.48
2022-10-05T06:06:49.768Z,44.48
2022-10-05T06:07:49.400Z,44.48
2022-10-05T06:08:49.370Z,44.48
2022-10-05T06:09:49.364Z,44.48
2022-10-05T06:10:49.346Z,44.48
2022-10-05T06:11:49.351Z,44.48
2022-10-05T06:12:49.335Z,44.48
2022-10-05T06:13:49.330Z,44.48
2022-10-05T06:14:49.308Z,44.48
2022-10-05T06:15:49.300Z,44.48
2022-10-05T06:16:49.828Z,44.48
2022-10-05T06:17:49.302Z,44.48
2022-10-05T06:18:49.283Z,44.48
2022-10-05T06:19:49.281Z,44.48
2022-10-05T06:20:49.290Z,44.48
2022-10-05T06:21:49.253Z,44.38
2022-10-05T06:22:49.253Z,44.38
2022-10-05T06:23:49.222Z,44.35
2022-10-05T06:24:49.203Z,44.38
2022-10-05T06:25:49.206Z,44.35
2022-10-05T06:26:49.577Z,44.38
2022-10-05T06:27:49.202Z,44.38
2022-10-05T06:28:49.170Z,44.38
2022-10-05T06:29:49.151Z,44.38
2022-10-05T06:30:49.151Z,44.35
2022-10-05T06:31:49.202Z,44.38
2022-10-05T06:32:49.141Z,44.35
2022-10-05T06:33:49.126Z,44.38
2022-10-05T06:34:49.102Z,44.38
2022-10-05T06:35:49.104Z,44.35
2022-10-05T06:36:49.448Z,44.38
2022-10-05T06:37:49.093Z,44.35
2022-10-05T06:38:49.126Z,44.38
2022-10-05T06:39:49.081Z,44.35
2022-10-05T06:40:49.057Z,44.35
2022-10-05T06:41:49.029Z,44.35
2022-10-05T06:42:49.031Z,44.38
2022-10-05T06:43:49.011Z,44.38
2022-10-05T06:44:49.015Z,44.38
2022-10-05T06:45:49.020Z,44.35
2022-10-05T06:46:49.243Z,44.38
2022-10-05T06:47:48.961Z,44.38
2022-10-05T06:48:48.967Z,44.38
2022-10-05T06:49:48.955Z,44.35
2022-10-05T06:50:48.953Z,44.35
2022-10-05T06:51:48.923Z,44.38
2022-10-05T06:52:48.923Z,44.35
2022-10-05T06:53:48.914Z,44.26
2022-10-05T06:54:48.933Z,44.35
2022-10-05T06:55:48.924Z,44.26
2022-10-05T06:56:49.481Z,44.35
2022-10-05T06:57:48.864Z,44.35
2022-10-05T06:58:48.851Z,44.38
2022-10-05T06:59:48.841Z,44.35
2022-10-05T07:00:48.846Z,44.28
2022-10-05T07:01:49.272Z,43.96
2022-10-05T07:02:48.832Z,43.85
2022-10-05T07:03:48.825Z,43.76
2022-10-05T07:04:48.790Z,43.77
2022-10-05T07:05:48.783Z,43.77
2022-10-05T07:06:48.783Z,43.77
2022-10-05T07:07:48.764Z,43.77
2022-10-05T07:08:48.794Z,43.77
2022-10-05T07:09:48.833Z,43.77
2022-10-05T07:10:48.764Z,43.77
2022-10-05T07:11:54.370Z,43.77
2022-10-05T07:12:49.712Z,43.88
2022-10-05T07:13:48.705Z,43.88
2022-10-05T07:14:48.711Z,43.88
2022-10-05T07:15:48.672Z,43.98
2022-10-05T07:16:48.810Z,43.88
2022-10-05T07:17:48.984Z,43.98
2022-10-05T07:18:48.692Z,43.98
2022-10-05T07:19:48.644Z,43.98
2022-10-05T07:20:49.434Z,43.98
2022-10-05T07:21:49.070Z,43.98
2022-10-05T07:22:48.642Z,44.08
2022-10-05T07:23:48.613Z,44.08
2022-10-05T07:24:48.592Z,44.08
2022-10-05T07:25:48.683Z,43.98
2022-10-05T07:26:49.035Z,43.88
2022-10-05T07:27:51.006Z,43.88
2022-10-05T07:28:48.554Z,43.88
2022-10-05T07:29:48.945Z,43.98
2022-10-05T07:30:48.612Z,43.98
2022-10-05T07:31:48.535Z,44.08
2022-10-05T07:32:48.514Z,43.98
2022-10-05T07:33:48.574Z,43.98
2022-10-05T07:34:48.485Z,44.18
2022-10-05T07:35:48.515Z,44.18
2022-10-05T07:36:53.699Z,44.18
2022-10-05T07:37:49.512Z,44.28
2022-10-05T07:38:48.442Z,44.28
2022-10-05T07:40:00.179Z,44.28
2022-10-05T07:40:49.435Z,44.28
2022-10-05T07:41:48.433Z,44.28
2022-10-05T07:42:52.082Z,44.38
2022-10-05T07:44:05.010Z,44.28
2022-10-05T07:44:49.396Z,44.38
2022-10-05T07:45:48.440Z,44.28
2022-10-05T07:46:48.774Z,44.28
2022-10-05T07:47:48.355Z,44.28
2022-10-05T07:48:48.354Z,44.28
2022-10-05T07:49:48.345Z,44.28
2022-10-05T07:50:48.325Z,44.28
2022-10-05T07:51:48.365Z,44.28
2022-10-05T07:52:48.303Z,44.38
2022-10-05T07:53:48.294Z,44.38
2022-10-05T07:54:48.293Z,44.38
2022-10-05T07:55:48.324Z,44.48
2022-10-05T07:56:48.835Z,44.48
2022-10-05T07:57:48.264Z,44.48
2022-10-05T07:58:48.242Z,44.56
2022-10-05T07:59:48.234Z,44.56
2022-10-05T08:00:48.238Z,44.48
2022-10-05T08:01:48.307Z,44.56
2022-10-05T08:02:48.240Z,44.56
2022-10-05T08:03:48.217Z,44.66
2022-10-05T08:04:48.197Z,44.66
2022-10-05T08:05:48.177Z,44.56
2022-10-05T08:06:48.960Z,44.66
2022-10-05T08:08:44.983Z,44.66
2022-10-05T08:09:44.958Z,44.66
2022-10-05T08:10:44.944Z,44.66
2022-10-05T08:11:45.195Z,44.66
2022-10-05T08:12:44.954Z,44.66
2022-10-05T08:13:44.912Z,44.66
2022-10-05T08:14:44.910Z,44.66
2022-10-05T08:15:44.936Z,44.66
2022-10-05T08:16:44.851Z,44.66
2022-10-05T08:17:45.021Z,44.66
2022-10-05T08:18:44.833Z,44.66
2022-10-05T08:19:44.993Z,44.56
2022-10-05T08:20:44.813Z,44.66
2022-10-05T08:21:45.236Z,44.66
2022-10-05T08:22:44.803Z,44.66
2022-10-05T08:23:44.782Z,44.66
2022-10-05T08:24:44.812Z,44.66
2022-10-05T08:25:44.782Z,44.66
2022-10-05T08:26:44.774Z,44.66
2022-10-05T08:27:44.761Z,44.66
2022-10-05T08:28:44.765Z,44.66
2022-10-05T08:29:44.741Z,44.66
2022-10-05T08:30:44.723Z,44.64
2022-10-05T08:31:45.197Z,44.64
2022-10-05T08:32:44.694Z,44.64
2022-10-05T08:33:44.682Z,44.64
2022-10-05T08:34:44.672Z,44.64
2022-10-05T08:35:44.661Z,44.54
2022-10-05T08:36:44.705Z,44.54
2022-10-05T08:37:44.664Z,44.54
2022-10-05T08:38:44.648Z,44.54
2022-10-05T08:39:44.651Z,44.54
2022-10-05T08:40:44.625Z,44.54
2022-10-05T08:41:44.852Z,44.54
2022-10-05T08:42:44.636Z,44.54
2022-10-05T08:43:44.604Z,44.54
2022-10-05T08:44:44.592Z,44.54
2022-10-05T08:45:44.604Z,44.54
2022-10-05T08:46:44.552Z,44.54
2022-10-05T08:47:44.551Z,44.43
2022-10-05T08:48:44.553Z,44.43
2022-10-05T08:49:44.514Z,44.43
2022-10-05T08:50:44.571Z,44.42
2022-10-05T08:51:44.849Z,44.42
2022-10-05T08:52:44.514Z,44.42
2022-10-05T08:53:44.535Z,44.32
2022-10-05T08:54:44.517Z,44.32
2022-10-05T08:55:44.542Z,44.42
2022-10-05T08:56:44.492Z,44.42
2022-10-05T08:57:44.444Z,44.42
2022-10-05T08:58:44.432Z,44.42
2022-10-05T08:59:44.442Z,44.42
2022-10-05T09:00:44.422Z,44.42
2022-10-05T09:01:44.837Z,44.42
2022-10-05T09:02:44.494Z,44.32
2022-10-05T09:03:44.383Z,44.32
2022-10-05T09:04:44.395Z,44.32
2022-10-05T09:05:44.374Z,44.32
2022-10-05T09:06:45.361Z,44.32
2022-10-05T09:07:44.336Z,44.29
2022-10-05T09:08:44.345Z,44.29
2022-10-05T09:09:44.350Z,44.39
2022-10-05T09:10:44.313Z,44.39
2022-10-05T09:11:44.589Z,44.29
2022-10-05T09:12:44.329Z,44.29
2022-10-05T09:13:44.280Z,44.20
2022-10-05T09:14:52.422Z,44.20
2022-10-05T09:15:45.365Z,44.09
2022-10-05T09:16:44.261Z,44.09
2022-10-05T09:17:44.275Z,44.09
2022-10-05T09:18:44.256Z,44.20
2022-10-05T09:19:44.235Z,44.09
2022-10-05T09:20:44.266Z,44.09
2022-10-05T09:21:44.627Z,44.09
2022-10-05T09:22:44.235Z,44.09
2022-10-05T09:23:44.175Z,44.09
2022-10-05T09:24:48.358Z,43.99
2022-10-05T09:25:44.164Z,43.99
2022-10-05T09:26:44.176Z,43.99
2022-10-05T09:27:44.162Z,43.99
2022-10-05T09:28:44.123Z,43.99
2022-10-05T09:29:44.134Z,43.99
2022-10-05T09:30:44.160Z,43.99
2022-10-05T09:31:44.354Z,43.99
2022-10-05T09:32:44.126Z,43.99
2022-10-05T09:33:44.077Z,43.99
2022-10-05T09:34:44.146Z,43.99
2022-10-05T09:35:44.077Z,43.90
2022-10-05T09:36:44.046Z,43.90
2022-10-05T09:37:44.076Z,43.99
2022-10-05T09:38:44.057Z,43.99
2022-10-05T09:39:44.028Z,43.90
2022-10-05T09:40:44.084Z,43.99
2022-10-05T09:41:45.273Z,43.99
2022-10-05T09:42:43.985Z,43.99
2022-10-05T09:43:43.969Z,43.99
2022-10-05T09:44:43.984Z,43.90
2022-10-05T09:45:43.967Z,43.90
2022-10-05T09:46:44.126Z,43.90
2022-10-05T09:47:43.924Z,43.90
2022-10-05T09:48:43.935Z,43.90
2022-10-05T09:49:43.937Z,43.90
2022-10-05T09:50:43.942Z,43.90
2022-10-05T09:51:44.210Z,43.90
2022-10-05T09:52:43.918Z,43.90
2022-10-05T09:53:43.896Z,43.90
2022-10-05T09:54:43.867Z,43.90
2022-10-05T09:55:43.858Z,43.90
2022-10-05T09:56:44.144Z,43.90
2022-10-05T09:57:43.835Z,43.90
2022-10-05T09:58:43.854Z,43.90
2022-10-05T09:59:43.805Z,43.90
2022-10-05T10:00:50.183Z,43.90
2022-10-05T10:01:46.375Z,43.90
2022-10-05T10:02:43.914Z,43.90
2022-10-05T10:03:43.769Z,43.90
2022-10-05T10:04:43.791Z,43.87
2022-10-05T10:05:43.744Z,43.90
2022-10-05T10:06:43.736Z,43.90
2022-10-05T10:07:43.765Z,43.87
2022-10-05T10:08:43.733Z,43.90
2022-10-05T10:09:43.707Z,43.87
2022-10-05T10:10:43.706Z,43.87
2022-10-05T10:11:43.885Z,43.90
2022-10-05T10:12:43.707Z,43.90
2022-10-05T10:13:43.707Z,43.87
2022-10-05T10:14:43.698Z,43.87
2022-10-05T10:15:43.714Z,43.90
2022-10-05T10:16:43.673Z,43.90
2022-10-05T10:17:43.700Z,43.90
2022-10-05T10:18:43.627Z,43.90
2022-10-05T10:19:43.694Z,43.99
2022-10-05T10:20:43.618Z,44.09
2022-10-05T10:21:43.832Z,44.79
2022-10-05T10:22:43.635Z,44.89
2022-10-05T10:23:43.566Z,46.80
2022-10-05T10:24:43.587Z,46.59
2022-10-05T10:25:43.556Z,46.19
2022-10-05T10:26:44.217Z,45.89
2022-10-05T10:27:43.540Z,46.00
2022-10-05T10:28:43.516Z,45.89
2022-10-05T10:29:43.541Z,46.09
2022-10-05T10:30:43.546Z,46.30
2022-10-05T10:31:43.556Z,46.30
2022-10-05T10:32:43.519Z,46.30
2022-10-05T10:33:43.468Z,46.19
2022-10-05T10:34:43.468Z,46.00
2022-10-05T10:35:43.470Z,45.89
2022-10-05T10:36:43.496Z,45.89
2022-10-05T10:37:43.427Z,45.79
2022-10-05T10:38:43.428Z,45.79
2022-10-05T10:39:43.437Z,45.79
2022-10-05T10:40:43.417Z,45.89
2022-10-05T10:41:43.415Z,45.79
2022-10-05T10:42:43.382Z,45.89
2022-10-05T10:43:43.368Z,45.89
2022-10-05T10:44:43.397Z,45.79
2022-10-05T10:45:43.349Z,45.79
2022-10-05T10:46:43.411Z,45.79
2022-10-05T10:47:43.325Z,45.79
2022-10-05T10:48:43.328Z,45.79
2022-10-05T10:49:43.350Z,45.79
2022-10-05T10:50:43.300Z,45.79
2022-10-05T10:51:43.325Z,45.79
2022-10-05T10:52:43.303Z,45.79
2022-10-05T10:53:43.337Z,45.69
2022-10-05T10:54:43.256Z,45.79
2022-10-05T10:55:43.461Z,45.79
2022-10-05T10:56:43.242Z,45.79
2022-10-05T10:57:43.238Z,45.79
2022-10-05T10:58:43.879Z,45.89
2022-10-05T10:59:43.216Z,45.89
2022-10-05T11:00:43.198Z,45.89
2022-10-05T11:01:43.252Z,45.89
2022-10-05T11:02:43.276Z,45.89
2022-10-05T11:03:43.170Z,46.00
2022-10-05T11:04:43.164Z,46.09
2022-10-05T11:05:47.956Z,46.00
2022-10-05T11:06:44.197Z,46.00
2022-10-05T11:07:43.121Z,45.89
2022-10-05T11:08:43.129Z,45.89
2022-10-05T11:09:43.101Z,45.89
2022-10-05T11:10:43.130Z,45.89
2022-10-05T11:11:43.102Z,45.89
2022-10-05T11:12:43.110Z,45.89
2022-10-05T11:13:43.073Z,45.89
2022-10-05T11:14:43.070Z,45.89
2022-10-05T11:15:43.834Z,45.79
2022-10-05T11:16:43.083Z,45.79
2022-10-05T11:17:43.499Z,45.89
2022-10-05T11:18:43.009Z,45.89
2022-10-05T11:20:02.463Z,45.89
2022-10-05T11:20:44.018Z,45.89
2022-10-05T11:21:42.970Z,45.79
2022-10-05T11:22:43.460Z,45.79
2022-10-05T11:23:42.988Z,45.89
2022-10-05T11:24:42.969Z,45.89
2022-10-05T11:25:47.700Z,45.79
2022-10-05T11:26:42.972Z,46.00
2022-10-05T11:27:42.970Z,46.50
2022-10-05T11:28:42.953Z,46.69
2022-10-05T11:29:42.963Z,46.59
2022-10-05T11:30:45.203Z,46.89
2022-10-05T11:31:42.988Z,47.49
2022-10-05T11:32:42.893Z,47.99
2022-10-05T11:33:42.993Z,48.49
2022-10-05T11:34:42.912Z,48.60
2022-10-05T11:35:42.829Z,48.90
2022-10-05T11:36:42.828Z,49.09
2022-10-05T11:37:42.851Z,49.40
2022-10-05T11:38:42.822Z,49.59
2022-10-05T11:39:42.809Z,49.82
2022-10-05T11:40:42.788Z,50.02
2022-10-05T11:41:42.791Z,50.02
2022-10-05T11:42:42.771Z,50.22
2022-10-05T11:43:42.785Z,50.32
2022-10-05T11:44:42.753Z,50.42
2022-10-05T11:45:42.774Z,50.32
2022-10-05T11:46:42.841Z,50.32
2022-10-05T11:47:42.721Z,50.02
2022-10-05T11:48:42.706Z,49.82
2022-10-05T11:49:42.711Z,49.72
2022-10-05T11:50:42.711Z,49.72
2022-10-05T11:51:42.671Z,49.72
2022-10-05T11:52:42.680Z,49.82
2022-10-05T11:53:42.642Z,50.22
2022-10-05T11:55:09.133Z,50.12
2022-10-05T11:55:43.662Z,50.32
2022-10-05T11:56:42.621Z,50.12
2022-10-05T11:57:42.623Z,50.02
2022-10-05T11:58:42.633Z,50.12
2022-10-05T11:59:42.592Z,50.02
2022-10-05T12:00:42.592Z,50.22
2022-10-05T12:01:42.592Z,50.12
2022-10-05T12:02:43.719Z,50.42
2022-10-05T12:03:42.699Z,50.52
2022-10-05T12:04:42.562Z,50.92
2022-10-05T12:05:42.530Z,50.72
2022-10-05T12:06:42.521Z,50.92
2022-10-05T12:07:42.513Z,50.82
2022-10-05T12:08:43.460Z,50.59
2022-10-05T12:09:42.482Z,50.89
2022-10-05T12:10:42.502Z,50.79
2022-10-05T12:11:42.483Z,50.59
2022-10-05T12:12:42.981Z,50.59
2022-10-05T12:13:42.446Z,50.39
2022-10-05T12:14:42.431Z,50.39
2022-10-05T12:15:42.482Z,50.49
2022-10-05T12:16:42.421Z,50.79
2022-10-05T12:17:42.421Z,50.70
2022-10-05T12:18:42.412Z,50.49
2022-10-05T12:19:42.382Z,50.29
2022-10-05T12:20:42.384Z,50.29
2022-10-05T12:21:42.386Z,50.29
2022-10-05T12:22:42.365Z,50.39
2022-10-05T12:23:42.364Z,50.39
2022-10-05T12:24:42.353Z,50.29
2022-10-05T12:25:42.344Z,50.29
2022-10-05T12:26:42.323Z,50.39
2022-10-05T12:27:42.324Z,50.29
2022-10-05T12:28:42.314Z,50.49
2022-10-05T12:29:42.283Z,50.39
2022-10-05T12:30:42.282Z,50.20
2022-10-05T12:31:42.286Z,50.29
2022-10-05T12:32:42.260Z,49.99
2022-10-05T12:33:42.242Z,50.20
2022-10-05T12:34:42.457Z,50.99
2022-10-05T12:35:49.744Z,51.50
2022-10-05T12:37:02.870Z,52.00
2022-10-05T12:37:43.233Z,51.69
2022-10-05T12:38:42.205Z,51.39
2022-10-05T12:39:42.184Z,51.39
2022-10-05T12:40:42.221Z,51.20
2022-10-05T12:41:42.222Z,51.32
2022-10-05T12:42:42.242Z,51.22
2022-10-05T12:43:42.154Z,51.02
2022-10-05T12:44:42.153Z,51.32
2022-10-05T12:45:42.180Z,51.52
2022-10-05T12:46:42.131Z,51.52
2022-10-05T12:47:42.092Z,51.52
2022-10-05T12:48:42.118Z,51.62
2022-10-05T12:49:42.075Z,51.62
2022-10-05T12:50:42.115Z,51.82
2022-10-05T12:51:43.014Z,52.12
2022-10-05T12:52:42.053Z,52.12
2022-10-05T12:53:42.065Z,51.82
2022-10-05T12:54:42.104Z,51.72